Time;durP1;ratioP1;P1;durP2;ratioP2;P2;SDS_P1;SDS_P2;PMS_P1;PMS_P2;Temp;Humidity;BMP_temperature;BMP_pressure;BME280_temperature;BME280_humidity;BME280_pressure;Samples;Min_cycle;Max_cycle;Signal;HPM_P1;HPM_P2
2021/11/20 00:01:47;;;;;;;37.45;25.90;;;;;;;9.53;63.44;99946.63;5053925;28;20131;-50
2021/11/20 00:04:13;;;;;;;45.30;28.35;;;;;;;9.53;63.33;99946.63;5035772;28;20026;-49
2021/11/20 00:06:43;;;;;;;43.85;24.60;;;;;;;9.46;63.46;99937.78;5053702;28;20504;-50
2021/11/20 00:09:14;;;;;;;35.33;25.15;;;;;;;9.50;63.75;99942.53;5053651;28;20028;-49
2021/11/20 00:11:42;;;;;;;38.42;26.55;;;;;;;9.56;63.11;99935.84;5053558;28;20095;-50
2021/11/20 00:14:10;;;;;;;1676.18;946.85;;;;;;;9.50;63.42;99942.53;5053508;28;20100;-49
2021/11/20 00:16:38;;;;;;;181.02;127.95;;;;;;;9.44;63.55;99932.72;5053480;28;20028;-49
2021/11/20 00:19:04;;;;;;;1479.13;900.58;;;;;;;9.35;63.71;99931.84;5035428;28;20631;-49
2021/11/20 00:21:43;;;;;;;193.48;157.77;;;;;;;9.27;64.23;99931.03;5053344;28;20178;-49
2021/11/20 00:24:18;;;;;;;56.58;41.05;;;;;;;9.36;64.32;99935.31;5053362;28;20067;-49
2021/11/20 00:26:45;;;;;;;49.88;35.30;;;;;;;9.35;63.95;99933.66;5035038;28;20068;-50
2021/11/20 00:31:43;;;;;;;39.75;28.52;;;;;;;9.18;64.02;99928.41;5053131;28;20029;-49
2021/11/20 00:34:12;;;;;;;49.45;29.90;;;;;;;9.28;65.07;99927.44;5039910;28;20461;-49
2021/11/20 00:36:48;;;;;;;43.17;27.88;;;;;;;9.38;64.33;99933.34;5053674;28;20422;-49
2021/11/20 00:39:17;;;;;;;42.45;27.15;;;;;;;9.43;64.05;99938.91;5035086;28;20039;-50
2021/11/20 00:41:43;;;;;;;42.47;28.20;;;;;;;9.36;63.62;99935.31;5052915;28;20518;-50
2021/11/20 00:44:09;;;;;;;40.72;27.02;;;;;;;9.31;64.12;99925.31;5052948;28;20085;-49
2021/11/20 00:46:36;;;;;;;44.45;28.23;;;;;;;9.35;64.43;99928.44;5034921;28;20063;-50
2021/11/20 00:49:04;;;;;;;39.75;27.17;;;;;;;9.37;64.22;99922.03;5052859;28;20071;-49
2021/11/20 00:51:30;;;;;;;51.38;27.83;;;;;;;9.46;64.38;99911.59;5052639;28;20021;-50
2021/11/20 00:53:57;;;;;;;52.67;27.92;;;;;;;9.48;63.79;99915.69;5052762;28;20024;-50
2021/11/20 00:56:25;;;;;;;48.40;27.88;;;;;;;9.42;63.71;99910.25;5052708;28;20394;-50
2021/11/20 00:58:51;;;;;;;41.90;28.00;;;;;;;9.34;63.92;99911.91;5052623;28;20021;-50
2021/11/20 01:01:22;;;;;;;41.88;27.25;;;;;;;9.36;64.15;99914.38;5052259;28;20025;-50
2021/11/20 01:03:47;;;;;;;42.28;27.92;;;;;;;9.37;63.82;99902.88;5052582;28;20033;-50
2021/11/20 01:06:13;;;;;;;51.35;32.28;;;;;;;9.32;63.82;99902.56;5052544;28;20172;-50
2021/11/20 01:08:43;;;;;;;42.38;28.50;;;;;;;9.34;64.02;99911.09;5052519;28;20032;-50
2021/11/20 01:11:18;;;;;;;44.40;27.77;;;;;;;9.36;64.00;99903.88;5052327;28;20121;-49
2021/11/20 01:13:46;;;;;;;48.92;28.00;;;;;;;9.42;64.03;99902.38;5052462;28;20555;-50
2021/11/20 01:16:16;;;;;;;46.35;27.05;;;;;;;9.40;63.79;99905.19;5052309;28;20017;-50
2021/11/20 01:18:43;;;;;;;43.10;27.40;;;;;;;9.32;63.42;99902.56;5052343;28;20021;-50
2021/11/20 01:21:09;;;;;;;42.35;28.13;;;;;;;9.18;64.09;99901.41;5052234;28;20163;-50
2021/11/20 01:23:36;;;;;;;48.05;26.50;;;;;;;9.16;64.25;99896.31;5034283;28;20043;-49
2021/11/20 01:26:03;;;;;;;42.92;28.58;;;;;;;9.18;64.35;99899.59;5049694;28;20045;-50
2021/11/20 01:28:33;;;;;;;42.40;26.17;;;;;;;9.22;64.30;99891.44;5052135;28;20033;-50
2021/11/20 01:31:01;;;;;;;43.70;27.25;;;;;;;9.33;63.77;99896.34;5051943;28;20040;-50
2021/11/20 01:33:27;;;;;;;43.95;28.55;;;;;;;9.29;63.49;99893.22;5052047;28;20096;-50
2021/11/20 01:35:53;;;;;;;45.78;30.00;;;;;;;9.22;63.94;99902.72;5034078;28;20410;-50
2021/11/20 01:38:20;;;;;;;46.72;29.08;;;;;;;9.25;64.00;99885.84;5052007;28;20021;-50
2021/11/20 01:40:46;;;;;;;47.03;29.17;;;;;;;9.24;63.49;99890.28;5051917;28;20040;-49
2021/11/20 01:43:12;;;;;;;45.38;28.67;;;;;;;9.15;63.61;99889.41;5051975;28;20206;-50
2021/11/20 01:45:55;;;;;;;44.83;28.10;;;;;;;9.06;64.23;99879.94;5051886;28;20025;-49
2021/11/20 01:48:39;;;;;;;42.78;29.23;;;;;;;9.00;63.73;99876.16;5051902;28;20104;-50
2021/11/20 01:51:19;;;;;;;49.25;31.05;;;;;;;8.85;64.55;99876.94;5051654;28;20104;-50
2021/11/20 01:54:10;;;;;;;49.30;30.00;;;;;;;8.90;64.90;99867.63;5051795;28;20025;-50
2021/11/20 01:56:50;;;;;;;47.10;29.67;;;;;;;9.25;64.63;99867.50;5051749;28;20029;-50
2021/11/20 01:59:34;;;;;;;47.05;29.13;;;;;;;9.41;63.90;99872.75;5033841;28;20083;-50
2021/11/20 02:02:50;;;;;;;44.20;26.13;;;;;;;9.52;63.54;99863.78;5051621;28;20021;-50
2021/11/20 02:05:28;;;;;;;42.00;25.23;;;;;;;9.51;63.11;99854.25;4990194;28;20034;-50
2021/11/20 02:08:22;;;;;;;45.95;24.58;;;;;;;9.43;63.71;99854.25;4990156;28;20591;-50
2021/11/20 02:10:55;;;;;;;48.15;24.95;;;;;;;9.67;63.48;99859.47;4990155;28;20030;-49
2021/11/20 02:13:26;;;;;;;53.47;27.23;;;;;;;9.57;62.95;99854.41;4993902;28;20034;-49
2021/11/20 02:15:59;;;;;;;40.88;25.58;;;;;;;9.45;63.26;99850.47;4994320;28;20042;-50
2021/11/20 02:18:29;;;;;;;39.88;24.08;;;;;;;9.55;63.81;99847.69;4994256;28;20042;-49
2021/11/20 02:21:21;;;;;;;45.30;24.45;;;;;;;9.54;63.06;99848.69;4994144;28;20177;-50
2021/11/20 02:23:46;;;;;;;43.28;24.35;;;;;;;9.46;63.30;99846.09;4994145;28;20038;-50
2021/11/20 02:26:12;;;;;;;39.90;24.25;;;;;;;9.40;63.49;99840.50;4993712;28;20049;-50
2021/11/20 02:28:39;;;;;;;42.90;23.58;;;;;;;9.33;63.68;99841.31;4977750;28;20057;-49
2021/11/20 02:31:06;;;;;;;45.10;24.48;;;;;;;9.30;63.67;99839.84;4993650;28;20052;-50
2021/11/20 02:33:36;;;;;;;45.42;24.08;;;;;;;9.18;63.84;99835.91;4993935;28;20635;-50
2021/11/20 02:36:05;;;;;;;44.47;26.58;;;;;;;9.20;63.94;99833.97;4993693;28;20034;-50
2021/11/20 02:39:07;;;;;;;46.33;25.73;;;;;;;9.23;63.86;99825.75;5012344;28;20116;-49
2021/11/20 02:41:36;;;;;;;40.63;23.92;;;;;;;9.23;63.48;99835.41;5044247;28;20033;-49
2021/11/20 02:44:04;;;;;;;45.42;24.80;;;;;;;9.09;63.29;99829.03;5037114;28;20082;-50
2021/11/20 02:46:33;;;;;;;48.38;26.17;;;;;;;8.78;64.47;99822.59;5055227;28;20070;-49
2021/11/20 02:48:59;;;;;;;45.78;25.25;;;;;;;8.72;65.39;99820.63;5055161;28;20021;-50
2021/11/20 02:51:32;;;;;;;44.00;24.13;;;;;;;8.98;65.20;99814.47;5055018;28;20021;-49
2021/11/20 02:54:14;;;;;;;46.90;25.20;;;;;;;9.20;64.45;99805.16;5055111;28;20025;-49
2021/11/20 02:57:14;;;;;;;40.75;24.75;;;;;;;9.07;64.43;99799.56;5055067;28;20097;-50
2021/11/20 02:59:40;;;;;;;44.85;23.48;;;;;;;9.06;64.47;99792.72;5043546;28;20075;-49
2021/11/20 03:02:06;;;;;;;44.03;26.17;;;;;;;9.11;64.06;99793.03;5054925;28;20057;-50
2021/11/20 03:04:32;;;;;;;52.10;29.98;;;;;;;9.13;64.20;99796.28;5054784;28;20021;-50
2021/11/20 03:06:58;;;;;;;49.03;27.45;;;;;;;9.10;63.74;99794.03;5054752;28;20449;-50
2021/11/20 03:09:30;;;;;;;37.38;22.55;;;;;;;8.93;63.90;99788.78;5054790;28;20513;-50
2021/11/20 03:11:59;;;;;;;48.22;25.98;;;;;;;8.84;64.18;99791.53;5054526;28;20104;-49
2021/11/20 03:14:25;;;;;;;44.15;24.13;;;;;;;8.88;64.43;99780.56;5054656;28;20402;-50
2021/11/20 03:16:54;;;;;;;37.22;23.67;;;;;;;9.11;64.44;99780.72;5054591;28;20159;-49
2021/11/20 03:19:22;;;;;;;45.20;24.40;;;;;;;9.26;64.28;99783.53;5054875;28;20032;-49
2021/11/20 03:21:53;;;;;;;45.88;27.85;;;;;;;9.28;63.45;99778.94;5054326;28;20032;-50
2021/11/20 03:24:21;;;;;;;50.90;28.52;;;;;;;9.25;63.42;99775.84;5054267;28;20174;-49
2021/11/20 03:26:48;;;;;;;41.50;24.63;;;;;;;9.22;63.37;99779.59;5054133;28;20045;-49
2021/11/20 03:29:15;;;;;;;44.00;22.50;;;;;;;9.14;63.69;99774.38;5054347;28;20031;-50
2021/11/20 03:31:42;;;;;;;41.08;22.98;;;;;;;9.09;64.17;99764.38;5054168;28;20028;-49
2021/11/20 03:34:09;;;;;;;39.90;24.02;;;;;;;9.02;63.54;99770.44;5054316;28;20111;-50
2021/11/20 03:36:35;;;;;;;45.47;27.15;;;;;;;8.94;64.17;99758.16;5054488;28;20444;-49
2021/11/20 03:39:07;;;;;;;48.35;28.73;;;;;;;8.92;64.28;99760.13;5054216;28;20070;-50
2021/11/20 03:41:33;;;;;;;54.70;30.25;;;;;;;8.92;64.01;99758.31;5054109;28;20025;-50
2021/11/20 03:44:00;;;;;;;42.60;27.67;;;;;;;8.79;64.24;99756.19;5054427;28;20486;-50
2021/11/20 03:46:26;;;;;;;48.70;27.67;;;;;;;8.67;64.08;99759.28;5054144;28;20414;-50
2021/11/20 03:48:52;;;;;;;46.03;27.17;;;;;;;8.47;64.32;99750.91;5054074;28;20028;-50
2021/11/20 03:51:18;;;;;;;45.90;27.85;;;;;;;8.52;65.17;99749.44;5053938;28;20025;-50
2021/11/20 03:53:44;;;;;;;47.70;27.00;;;;;;;8.75;64.62;99743.56;5036003;28;20036;-50
2021/11/20 03:56:11;;;;;;;53.17;27.13;;;;;;;8.77;64.04;99746.84;5036026;28;20021;-49
2021/11/20 03:58:38;;;;;;;49.15;25.08;;;;;;;8.60;64.27;99746.03;5035926;28;20053;-50
2021/11/20 04:01:07;;;;;;;48.45;25.35;;;;;;;8.66;64.72;99745.38;5053792;28;20029;-49
2021/11/20 04:03:36;;;;;;;44.00;26.13;;;;;;;8.92;64.89;99742.63;5053713;28;20025;-50
2021/11/20 04:06:02;;;;;;;38.08;23.73;;;;;;;9.22;63.94;99740.31;5047582;28;20048;-49
2021/11/20 04:08:28;;;;;;;45.88;25.30;;;;;;;9.31;63.22;99739.31;5053673;28;20029;-49
2021/11/20 04:10:56;;;;;;;48.40;25.17;;;;;;;9.23;62.94;99728.84;5053458;28;20566;-49
2021/11/20 04:13:22;;;;;;;84.38;57.75;;;;;;;9.11;62.97;99732.78;5053554;28;20494;-50
2021/11/20 04:15:50;;;;;;;43.05;26.33;;;;;;;8.91;63.26;99742.78;5053464;28;20040;-50
2021/11/20 04:18:15;;;;;;;43.45;26.15;;;;;;;8.84;64.13;99742.63;5053488;28;20032;-49
2021/11/20 04:20:42;;;;;;;44.97;26.17;;;;;;;8.77;63.52;99742.47;5053353;28;20100;-50
2021/11/20 04:23:08;;;;;;;43.97;25.92;;;;;;;8.70;64.01;99743.25;5053348;28;20031;-49
2021/11/20 04:25:35;;;;;;;106.00;81.00;;;;;;;8.67;64.34;99747.03;5053237;28;20021;-50
2021/11/20 04:28:01;;;;;;;41.25;25.08;;;;;;;8.77;63.69;99746.84;5053169;28;20510;-49
2021/11/20 04:30:28;;;;;;;43.92;25.75;;;;;;;8.75;63.66;99744.41;5053347;28;20031;-49
2021/11/20 04:32:54;;;;;;;47.42;26.98;;;;;;;8.78;64.75;99745.88;5035236;28;20052;-50
2021/11/20 04:35:22;;;;;;;46.33;28.15;;;;;;;8.97;63.81;99745.56;5034559;28;20025;-49
2021/11/20 04:37:48;;;;;;;46.60;24.42;;;;;;;8.92;63.37;99742.63;5053109;28;20021;-50
2021/11/20 04:40:16;;;;;;;42.88;26.60;;;;;;;9.12;63.78;99740.50;5053022;28;20029;-50
2021/11/20 04:42:41;;;;;;;41.88;26.00;;;;;;;9.26;63.09;99746.06;5052979;28;20027;-50
2021/11/20 04:45:10;;;;;;;46.55;26.33;;;;;;;9.13;62.96;99747.34;5052997;28;20100;-50
2021/11/20 04:47:35;;;;;;;47.55;25.58;;;;;;;8.93;62.78;99741.66;5052896;28;20108;-50
2021/11/20 04:50:02;;;;;;;48.35;26.65;;;;;;;8.74;63.25;99747.19;5052748;28;20096;-50
2021/11/20 04:52:28;;;;;;;44.40;26.63;;;;;;;8.64;63.99;99747.34;5034826;28;20090;-50
2021/11/20 04:54:55;;;;;;;46.60;26.25;;;;;;;8.68;63.84;99742.59;5052831;28;20029;-50
2021/11/20 04:57:20;;;;;;;44.88;27.55;;;;;;;8.73;63.88;99745.53;5052691;28;20498;-50
2021/11/20 04:59:46;;;;;;;47.53;27.13;;;;;;;8.73;63.24;99741.16;5052622;28;20108;-49
2021/11/20 05:02:12;;;;;;;49.00;27.13;;;;;;;8.69;63.74;99739.00;5052624;28;20021;-50
2021/11/20 05:04:39;;;;;;;51.22;27.83;;;;;;;8.63;63.81;99747.50;5052570;28;20505;-50
2021/11/20 05:07:05;;;;;;;48.50;25.98;;;;;;;8.52;63.75;99746.00;5052536;28;20040;-50
2021/11/20 05:09:32;;;;;;;45.22;25.52;;;;;;;8.41;65.00;99752.38;5052455;28;20029;-50
2021/11/20 05:11:58;;;;;;;43.05;26.38;;;;;;;8.56;64.18;99749.94;5052316;28;20023;-49
2021/11/20 05:14:24;;;;;;;46.63;24.83;;;;;;;8.56;64.50;99735.06;5034432;28;20468;-50
2021/11/20 05:16:50;;;;;;;46.72;27.38;;;;;;;8.62;64.03;99738.03;5052301;28;20021;-50
2021/11/20 05:19:16;;;;;;;45.58;28.92;;;;;;;8.54;63.75;99734.41;5052339;28;20024;-49
2021/11/20 05:21:42;;;;;;;52.67;27.27;;;;;;;8.49;64.90;99738.47;5052238;28;20074;-49
2021/11/20 05:24:08;;;;;;;47.40;25.33;;;;;;;8.58;64.24;99730.47;5052248;28;20028;-50
2021/11/20 05:26:34;;;;;;;49.67;26.90;;;;;;;8.75;63.96;99741.81;5052170;28;20060;-50
2021/11/20 05:29:09;;;;;;;45.88;25.92;;;;;;;8.80;64.22;99736.06;5052156;28;20024;-49
2021/11/20 05:31:36;;;;;;;57.28;39.42;;;;;;;9.09;63.51;99734.75;5052046;28;20300;-49
2021/11/20 05:34:04;;;;;;;49.92;27.95;;;;;;;9.05;63.28;99736.88;5052107;28;20017;-50
2021/11/20 05:36:35;;;;;;;42.13;26.58;;;;;;;9.04;63.09;99734.44;5034046;28;20021;-49
2021/11/20 05:39:03;;;;;;;43.58;23.40;;;;;;;8.93;62.77;99736.41;5052092;28;20025;-50
2021/11/20 05:41:30;;;;;;;44.78;24.05;;;;;;;8.75;63.50;99738.34;5051969;28;20032;-50
2021/11/20 05:43:57;;;;;;;40.45;21.30;;;;;;;8.82;64.04;99733.31;5051907;28;20390;-50
2021/11/20 05:46:25;;;;;;;41.97;22.70;;;;;;;8.89;63.67;99737.69;5051844;28;20025;-49
2021/11/20 05:48:51;;;;;;;43.50;23.33;;;;;;;8.85;63.74;99728.53;5051881;28;20021;-50
2021/11/20 05:51:17;;;;;;;40.22;21.83;;;;;;;8.79;63.45;99724.78;5051690;28;20021;-49
2021/11/20 05:53:43;;;;;;;46.60;29.00;;;;;;;8.77;64.12;99725.91;5051755;28;20017;-49
2021/11/20 05:56:10;;;;;;;39.65;22.88;;;;;;;8.97;63.77;99724.63;5051725;28;20032;-49
2021/11/20 05:58:36;;;;;;;45.65;24.70;;;;;;;9.20;63.28;99726.56;5033855;28;20189;-49
2021/11/20 06:01:08;;;;;;;38.33;22.83;;;;;;;9.24;62.52;99727.88;5051575;28;20036;-50
2021/11/20 06:03:34;;;;;;;39.45;22.33;;;;;;;9.05;62.36;99725.59;5033795;28;20116;-50
2021/11/20 06:06:01;;;;;;;47.60;23.38;;;;;;;8.89;63.40;99732.47;5033774;28;20128;-50
2021/11/20 06:08:27;;;;;;;39.35;20.88;;;;;;;8.79;63.24;99731.81;5051609;28;20025;-49
2021/11/20 06:10:56;;;;;;;38.67;22.80;;;;;;;8.76;63.59;99734.75;5033620;28;20048;-50
2021/11/20 06:13:23;;;;;;;37.05;23.23;;;;;;;8.78;63.84;99732.81;5051589;28;20017;-50
2021/11/20 06:15:50;;;;;;;40.30;21.60;;;;;;;8.87;63.75;99734.41;5051483;28;20532;-49
2021/11/20 06:18:17;;;;;;;43.55;24.13;;;;;;;8.89;62.96;99740.31;5051517;28;20024;-50
2021/11/20 06:20:45;;;;;;;47.88;26.70;;;;;;;8.84;62.77;99734.75;5051456;28;20581;-49
2021/11/20 06:23:11;;;;;;;42.22;24.42;;;;;;;8.67;62.73;99728.72;5051489;28;20048;-50
2021/11/20 06:25:38;;;;;;;49.88;26.50;;;;;;;8.47;62.98;99730.81;5051415;28;20054;-50
2021/11/20 06:28:04;;;;;;;48.70;25.50;;;;;;;8.41;63.72;99734.06;5014908;28;20045;-50
2021/11/20 06:30:32;;;;;;;46.40;24.77;;;;;;;8.36;64.17;99729.25;5031401;28;20105;-49
2021/11/20 06:32:58;;;;;;;38.95;22.80;;;;;;;8.53;63.90;99731.94;5031523;28;20119;-49
2021/11/20 06:35:27;;;;;;;45.63;25.85;;;;;;;8.52;63.36;99728.50;5031482;28;20026;-50
2021/11/20 06:37:54;;;;;;;45.47;22.85;;;;;;;8.49;64.09;99728.84;5013828;28;20021;-49
2021/11/20 06:40:29;;;;;;;42.95;22.00;;;;;;;8.42;63.63;99727.84;5031440;28;20119;-49
2021/11/20 06:42:58;;;;;;;40.47;23.23;;;;;;;8.39;63.70;99735.97;5031424;28;20030;-49
2021/11/20 06:45:31;;;;;;;42.53;23.60;;;;;;;8.23;63.74;99725.47;5031389;28;20060;-50
2021/11/20 06:47:57;;;;;;;39.63;23.23;;;;;;;8.10;63.69;99728.53;5013246;28;20041;-49
2021/11/20 06:50:24;;;;;;;39.50;23.60;;;;;;;7.95;63.95;99723.91;5031254;28;20024;-49
2021/11/20 06:52:49;;;;;;;36.17;22.30;;;;;;;7.77;63.61;99726.63;5013600;28;20036;-48
2021/11/20 06:55:17;;;;;;;39.13;21.02;;;;;;;7.63;64.37;99724.59;5031300;28;20167;-50
2021/11/20 07:00:28;;;;;;;39.75;21.30;;;;;;;7.26;65.38;99730.06;5035323;28;20479;-49
2021/11/20 07:03:18;;;;;;;36.00;21.17;;;;;;;7.09;65.61;99735.19;5017250;28;20124;-49
2021/11/20 07:05:47;;;;;;;37.97;22.38;;;;;;;6.99;66.09;99735.25;5034979;28;20483;-49
2021/11/20 07:08:14;;;;;;;42.10;22.98;;;;;;;6.96;66.77;99729.53;5017105;28;20083;-49
2021/11/20 07:10:42;;;;;;;44.22;24.40;;;;;;;6.95;67.23;99727.91;5035002;28;20057;-49
2021/11/20 07:13:09;;;;;;;43.95;24.52;;;;;;;6.94;67.37;99737.53;5034784;28;20029;-49
2021/11/20 07:15:35;;;;;;;38.90;21.70;;;;;;;6.97;67.33;99725.94;5034680;28;20045;-49
2021/11/20 07:18:01;;;;;;;41.85;24.73;;;;;;;7.07;67.63;99731.09;5016978;28;20572;-50
2021/11/20 07:20:30;;;;;;;41.63;25.02;;;;;;;7.23;66.40;99730.41;5034551;28;20029;-49
2021/11/20 07:22:56;;;;;;;41.72;23.95;;;;;;;7.23;66.06;99725.97;5034581;28;20025;-48
2021/11/20 07:25:25;;;;;;;46.15;26.55;;;;;;;7.29;66.08;99735.81;5016720;28;20384;-50
2021/11/20 07:27:52;;;;;;;47.17;25.65;;;;;;;7.38;66.30;99732.28;5034348;28;20050;-49
2021/11/20 07:30:20;;;;;;;45.60;23.45;;;;;;;7.47;65.09;99733.16;5034277;28;20026;-50
2021/11/20 07:32:46;;;;;;;44.03;21.73;;;;;;;7.35;65.07;99734.38;5034431;28;20029;-50
2021/11/20 07:35:21;;;;;;;38.67;20.05;;;;;;;7.22;66.37;99744.41;5034340;28;20387;-50
2021/11/20 07:37:47;;;;;;;43.28;25.13;;;;;;;7.11;66.10;99743.69;5034393;28;20037;-50
2021/11/20 07:40:13;;;;;;;47.08;28.65;;;;;;;7.18;66.51;99741.28;5034219;28;20025;-49
2021/11/20 07:42:39;;;;;;;56.85;27.80;;;;;;;7.21;66.41;99743.59;5034196;28;20487;-49
2021/11/20 07:45:04;;;;;;;41.05;23.00;;;;;;;7.49;66.73;99738.22;5034183;28;20036;-48
2021/11/20 07:47:31;;;;;;;46.83;27.00;;;;;;;7.70;65.56;99732.63;5034134;28;20077;-49
2021/11/20 07:49:57;;;;;;;43.55;24.63;;;;;;;7.71;65.54;99740.31;5034033;28;20017;-50
2021/11/20 07:52:23;;;;;;;41.03;22.80;;;;;;;7.63;65.25;99731.63;5033974;28;20795;-49
2021/11/20 07:54:49;;;;;;;48.45;25.48;;;;;;;7.56;65.96;99729.59;5034057;28;20017;-50
2021/11/20 07:57:15;;;;;;;40.38;25.65;;;;;;;7.45;66.23;99724.66;5016145;28;20025;-50
2021/11/20 07:59:40;;;;;;;48.83;30.00;;;;;;;7.25;66.33;99725.84;5016202;28;20446;-50
2021/11/20 08:02:09;;;;;;;46.97;30.95;;;;;;;7.50;67.57;99732.81;5016001;28;20490;-49
2021/11/20 08:04:37;;;;;;;45.65;27.55;;;;;;;7.48;66.34;99728.75;5033789;28;20533;-50
2021/11/20 08:07:05;;;;;;;44.03;24.95;;;;;;;7.32;67.18;99730.28;5033798;28;20459;-50
2021/11/20 08:09:32;;;;;;;47.33;28.08;;;;;;;7.51;67.49;99731.06;5032588;28;20491;-50
2021/11/20 08:11:58;;;;;;;42.22;26.20;;;;;;;7.77;65.30;99729.22;5033566;28;20025;-49
2021/11/20 08:14:24;;;;;;;48.38;29.15;;;;;;;7.96;66.34;99732.56;5033625;28;20044;-49
2021/11/20 08:16:50;;;;;;;42.33;26.77;;;;;;;8.07;64.23;99724.44;5033553;28;20508;-50
2021/11/20 08:19:17;;;;;;;45.65;27.83;;;;;;;8.27;64.60;99721.56;5033509;28;20068;-50
2021/11/20 08:21:43;;;;;;;37.55;22.50;;;;;;;8.48;62.96;99721.97;5015748;28;20033;-50
2021/11/20 08:24:09;;;;;;;36.28;24.10;;;;;;;8.25;62.28;99726.97;5033449;28;20017;-49
2021/11/20 08:26:36;;;;;;;40.65;22.80;;;;;;;7.83;62.91;99729.56;5033192;28;20124;-49
2021/11/20 08:29:11;;;;;;;43.75;23.77;;;;;;;7.82;64.67;99738.41;5033396;28;20044;-50
2021/11/20 08:31:40;;;;;;;38.90;22.25;;;;;;;8.09;64.52;99726.88;5033277;28;20021;-50
2021/11/20 08:34:06;;;;;;;38.05;24.73;;;;;;;8.36;63.85;99725.84;5033196;28;20061;-50
2021/11/20 08:36:34;;;;;;;39.28;23.75;;;;;;;8.35;63.56;99724.19;5033285;28;20143;-50
2021/11/20 08:39:00;;;;;;;39.03;22.73;;;;;;;8.22;62.99;99721.22;5033111;28;20097;-50
2021/11/20 08:41:26;;;;;;;37.33;23.40;;;;;;;8.15;63.60;99719.25;5033163;28;20034;-49
2021/11/20 08:43:51;;;;;;;35.20;21.95;;;;;;;8.12;63.12;99727.41;5015304;28;20025;-50
2021/11/20 08:46:18;;;;;;;35.03;23.67;;;;;;;8.02;62.98;99715.44;5033039;28;20384;-49
2021/11/20 08:48:43;;;;;;;39.72;25.40;;;;;;;7.94;63.29;99717.03;5032924;28;20507;-49
2021/11/20 08:51:14;;;;;;;36.95;24.52;;;;;;;7.87;63.87;99715.22;5032809;28;20024;-49
2021/11/20 08:53:40;;;;;;;40.53;28.63;;;;;;;7.83;63.66;99721.72;5032851;28;20087;-50
2021/11/20 08:56:06;;;;;;;39.75;22.35;;;;;;;7.77;63.81;99713.56;5015053;28;20033;-49
2021/11/20 08:58:35;;;;;;;38.63;23.67;;;;;;;7.71;63.97;99713.38;5032753;28;20024;-49
2021/11/20 09:01:17;;;;;;;41.15;25.83;;;;;;;7.67;64.77;99707.63;5032774;28;20022;-50
2021/11/20 09:04:15;;;;;;;36.03;21.63;;;;;;;7.71;64.79;99710.75;5032651;28;20037;-50
2021/11/20 09:07:04;;;;;;;34.97;22.15;;;;;;;7.69;64.76;99703.06;5014798;28;20041;-50
2021/11/20 09:09:38;;;;;;;43.35;25.80;;;;;;;7.78;64.44;99696.06;5032723;28;20037;-50
2021/11/20 09:12:28;;;;;;;28.75;18.70;;;;;;;7.75;64.82;99699.00;5032480;28;20033;-50
2021/11/20 09:15:02;;;;;;;31.92;20.52;;;;;;;7.65;64.88;99698.31;5014774;28;20029;-50
2021/11/20 09:17:29;;;;;;;38.97;22.85;;;;;;;7.49;65.16;99694.63;5032524;28;20558;-49
2021/11/20 09:19:54;;;;;;;36.10;22.60;;;;;;;7.35;65.04;99697.81;5032516;28;20109;-50
2021/11/20 09:22:21;;;;;;;30.83;20.05;;;;;;;7.36;65.43;99695.06;5014336;28;20116;-50
2021/11/20 09:24:49;;;;;;;31.52;20.50;;;;;;;7.41;65.89;99697.22;5032303;28;20582;-49
2021/11/20 09:27:15;;;;;;;29.45;20.45;;;;;;;7.52;65.43;99702.16;5043762;28;20048;-50
2021/11/20 09:29:41;;;;;;;29.20;19.65;;;;;;;7.65;65.39;99690.47;5052158;28;20045;-50
2021/11/20 09:32:09;;;;;;;32.88;20.95;;;;;;;7.78;65.32;99683.00;5051997;28;20033;-48
2021/11/20 09:34:36;;;;;;;32.70;21.42;;;;;;;7.87;64.48;99674.22;5052078;28;20548;-49
2021/11/20 09:37:02;;;;;;;32.13;20.52;;;;;;;7.95;64.61;99674.25;5052026;28;20056;-50
2021/11/20 09:39:35;;;;;;;27.40;20.17;;;;;;;7.91;64.55;99667.72;5052037;28;20425;-50
2021/11/20 09:42:15;;;;;;;30.77;19.63;;;;;;;7.98;64.19;99673.91;5034049;28;20402;-50
2021/11/20 09:44:47;;;;;;;33.35;20.75;;;;;;;8.03;63.78;99668.25;5052059;28;20021;-50
2021/11/20 09:47:15;;;;;;;35.72;21.35;;;;;;;7.98;63.61;99667.88;5051772;28;20029;-50
2021/11/20 09:49:45;;;;;;;29.58;20.63;;;;;;;7.93;64.13;99668.38;5051841;28;20063;-50
2021/11/20 09:52:12;;;;;;;45.90;32.50;;;;;;;8.07;63.86;99664.31;5051744;28;20025;-49
2021/11/20 09:54:41;;;;;;;34.90;22.30;;;;;;;8.19;63.30;99662.22;5051788;28;20040;-50
2021/11/20 09:57:15;;;;;;;30.25;20.98;;;;;;;8.18;63.64;99664.00;5051720;28;20398;-50
2021/11/20 09:59:46;;;;;;;32.22;20.70;;;;;;;8.27;63.08;99659.63;5051754;28;20021;-50
2021/11/20 10:02:11;;;;;;;32.97;22.08;;;;;;;8.31;62.63;99658.31;5051728;28;20082;-49
2021/11/20 10:05:12;;;;;;;33.58;22.48;;;;;;;8.44;62.96;99659.69;5033777;28;20500;-50
2021/11/20 10:07:43;;;;;;;30.63;20.25;;;;;;;8.77;62.59;99655.25;5051714;28;20120;-49
2021/11/20 10:10:14;;;;;;;27.95;18.02;;;;;;;8.93;61.82;99647.41;5033652;28;20624;-50
2021/11/20 10:13:02;;;;;;;28.63;19.95;;;;;;;8.98;61.26;99657.38;5033774;28;20397;-50
2021/11/20 10:15:32;;;;;;;26.20;16.83;;;;;;;9.20;60.98;99640.94;5051502;28;20028;-51
2021/11/20 10:18:19;;;;;;;25.65;18.27;;;;;;;9.27;60.31;99648.94;5051865;28;20040;-50
2021/11/20 10:21:15;;;;;;;24.50;18.67;;;;;;;9.49;60.42;99638.72;5051578;28;20048;-51
2021/11/20 10:24:14;;;;;;;25.05;18.48;;;;;;;9.91;59.57;99637.56;5051629;28;20104;-49
2021/11/20 10:26:48;;;;;;;26.58;18.73;;;;;;;10.36;58.81;99621.09;5051268;28;20069;-49
2021/11/20 10:29:53;;;;;;;23.75;16.65;;;;;;;10.59;57.54;99621.03;5051544;28;20040;-50
2021/11/20 10:32:22;;;;;;;33.55;17.88;;;;;;;10.74;57.01;99612.38;4973775;28;20443;-50
2021/11/20 10:34:53;;;;;;;28.83;19.17;;;;;;;11.09;57.17;99602.22;4994001;28;20026;-50
2021/11/20 10:37:19;;;;;;;24.33;16.73;;;;;;;11.95;55.96;99600.66;4993942;28;20042;-50
2021/11/20 10:39:51;;;;;;;22.48;16.58;;;;;;;12.90;54.56;99595.19;4993909;28;20088;-51
2021/11/20 10:42:30;;;;;;;26.35;19.30;;;;;;;13.03;52.62;99591.81;4993869;28;20539;-51
2021/11/20 10:45:20;;;;;;;26.92;18.42;;;;;;;12.79;53.28;99589.41;4993838;28;20034;-51
2021/11/20 10:48:05;;;;;;;22.77;17.52;;;;;;;13.87;52.16;99581.03;4993787;28;20414;-50
2021/11/20 10:50:45;;;;;;;23.90;17.80;;;;;;;15.42;49.83;99574.63;4993690;28;20038;-50
2021/11/20 10:53:16;;;;;;;21.38;17.10;;;;;;;16.36;48.34;99568.59;4993678;28;20505;-50
2021/11/20 10:56:00;;;;;;;19.98;17.15;;;;;;;17.13;44.75;99559.53;4993531;28;20031;-51
2021/11/20 10:58:59;;;;;;;27.58;17.88;;;;;;;17.40;43.50;99551.25;4977287;28;20034;-50
2021/11/20 11:01:59;;;;;;;19.33;15.85;;;;;;;18.11;42.99;99539.03;4977091;28;20030;-50
2021/11/20 11:04:56;;;;;;;30.38;18.15;;;;;;;18.32;41.37;99543.00;5054959;28;20088;-51
2021/11/20 11:07:31;;;;;;;18.67;16.60;;;;;;;18.25;39.92;99537.81;5051771;28;20037;-49
2021/11/20 11:10:02;;;;;;;19.92;16.30;;;;;;;17.85;39.60;99529.63;5054842;28;20426;-51
2021/11/20 11:12:54;;;;;;;22.77;17.70;;;;;;;17.52;40.19;99522.91;5054728;28;20128;-51
2021/11/20 11:15:36;;;;;;;19.38;17.23;;;;;;;17.53;40.26;99514.72;5036924;28;20033;-51
2021/11/20 11:18:20;;;;;;;18.67;16.65;;;;;;;17.75;39.95;99504.41;5054741;28;20029;-50
2021/11/20 11:21:04;;;;;;;21.52;18.00;;;;;;;18.01;39.53;99496.28;5054586;28;20025;-51
2021/11/20 11:23:41;;;;;;;23.30;16.83;;;;;;;18.27;38.81;99489.72;5054585;28;20036;-51
2021/11/20 11:26:10;;;;;;;22.10;17.08;;;;;;;18.61;37.82;99492.59;5054222;28;20029;-51
2021/11/20 11:28:59;;;;;;;19.35;17.35;;;;;;;18.66;38.31;99490.06;5054509;28;20029;-50
2021/11/20 11:31:29;;;;;;;19.65;17.52;;;;;;;18.71;37.74;99492.81;5036368;28;20506;-51
2021/11/20 11:34:24;;;;;;;19.40;16.90;;;;;;;18.90;37.83;99485.53;5036398;28;20031;-51
2021/11/20 11:37:11;;;;;;;20.45;17.98;;;;;;;19.05;37.71;99483.16;5053792;28;20047;-51
2021/11/20 11:39:52;;;;;;;21.17;17.00;;;;;;;19.05;37.58;99471.72;5054240;28;20021;-51
2021/11/20 11:42:44;;;;;;;20.88;18.13;;;;;;;18.73;37.57;99462.31;5054227;28;20048;-50
2021/11/20 11:45:28;;;;;;;24.20;19.45;;;;;;;18.65;38.60;99453.88;5054306;28;20025;-51
2021/11/20 11:48:12;;;;;;;21.45;17.73;;;;;;;18.94;38.03;99436.94;5036164;28;20551;-51